March AFB, California
Current Conditions -  °F | °C
As of 3:58 PM on Sunday 21 Dec 2014 (Local Time) from KRIV Reporting Station
Clear Clear  
Wind Chill: 62°   Ceiling: Unl
Heat Index: 62°   Visibility: 10mi
Dew Point: 53°   Wind: 5mph
Humidity: 74%   Direction: 310°NW
Pressure: 30.06"   Gusts: NA
Location:  33.89°N, 117.26°W
Report Text: KRIV 212358Z AUTO 31004KT 10SM CLR 17/12 A3006 RMK AO2 SLP178 T01650118 10183 20109 55007
Loading
Personal Weather Stations






























Interactive Weather Map New forecast layout! Learn more

10-Day Weather Forecast

Advertisements
Track Severe Weather on mobile